Time;durP1;ratioP1;P1;durP2;ratioP2;P2;SDS_P1;SDS_P2;PMS_P1;PMS_P2;Temp;Humidity;BMP_temperature;BMP_pressure;BME280_temperature;BME280_humidity;BME280_pressure;Samples;Min_cycle;Max_cycle;Signal;HPM_P1;HPM_P2
2021/07/19 00:01:32;;;;;;;2.60;0.30;;;16.80;99.90;;;;;;5060838;28;20028;-87
2021/07/19 00:03:59;;;;;;;3.00;0.20;;;17.60;99.90;;;;;;5061310;28;20510;-87
2021/07/19 00:06:26;;;;;;;2.50;0.40;;;16.20;99.90;;;;;;5060275;28;20111;-87
2021/07/19 00:08:51;;;;;;;0.60;0.28;;;18.90;99.90;;;;;;5061511;28;20030;-88
2021/07/19 00:11:18;;;;;;;0.73;0.10;;;16.70;99.90;;;;;;5061446;28;20036;-87
2021/07/19 00:13:43;;;;;;;4.55;0.80;;;16.40;99.90;;;;;;5060505;28;20504;-87
2021/07/19 00:16:09;;;;;;;3.08;0.28;;;18.30;99.90;;;;;;5078726;28;20029;-88
2021/07/19 00:18:36;;;;;;;1.73;0.57;;;16.40;99.90;;;;;;5060401;28;20378;-87
2021/07/19 00:21:02;;;;;;;2.97;1.27;;;19.10;99.90;;;;;;5079161;28;20023;-88
2021/07/19 00:23:27;;;;;;;4.60;0.63;;;16.10;99.90;;;;;;5060670;28;20529;-88
2021/07/19 00:25:53;;;;;;;3.90;0.52;;;17.10;99.90;;;;;;5061310;28;20104;-87
2021/07/19 00:28:19;;;;;;;2.20;1.20;;;16.30;99.90;;;;;;5061256;28;20024;-87
2021/07/19 00:30:46;;;;;;;2.63;0.82;;;16.40;99.90;;;;;;5061414;28;20163;-88
2021/07/19 00:33:12;;;;;;;3.20;0.40;;;17.90;99.90;;;;;;5060239;28;20028;-88
2021/07/19 00:35:38;;;;;;;2.15;0.45;;;15.90;99.90;;;;;;5078608;28;20376;-87
2021/07/19 00:38:04;;;;;;;2.25;0.38;;;16.20;99.90;;;;;;5060643;28;20450;-87
2021/07/19 00:40:35;;;;;;;6.15;0.80;;;17.90;99.90;;;;;;5061238;28;20028;-88
2021/07/19 00:43:03;;;;;;;1.77;0.40;;;16.10;99.90;;;;;;5060660;28;20077;-87
2021/07/19 00:45:31;;;;;;;5.88;0.70;;;16.20;99.90;;;;;;5061626;28;20100;-88
2021/07/19 00:47:58;;;;;;;2.30;0.50;;;16.20;99.90;;;;;;5060130;28;20111;-87
2021/07/19 00:50:26;;;;;;;4.40;0.98;;;16.10;99.90;;;;;;5060037;28;20084;-87
2021/07/19 00:52:57;;;;;;;2.28;0.43;;;16.10;99.90;;;;;;5061217;28;20021;-88
2021/07/19 00:55:31;;;;;;;2.45;0.63;;;16.80;99.90;;;;;;5078672;28;20025;-88
2021/07/19 00:57:58;;;;;;;2.88;0.60;;;16.10;99.90;;;;;;5060040;28;20028;-88
2021/07/19 01:00:45;;;;;;;2.05;0.35;;;16.10;99.90;;;;;;5060522;28;20429;-88
2021/07/19 01:03:17;;;;;;;2.83;0.52;;;16.10;99.90;;;;;;5077861;28;20075;-88
2021/07/19 01:05:44;;;;;;;2.90;0.47;;;16.00;99.90;;;;;;5060068;28;20159;-88
2021/07/19 01:08:10;;;;;;;2.13;0.57;;;17.40;99.90;;;;;;5078268;28;20041;-87
2021/07/19 01:10:37;;;;;;;3.50;0.47;;;18.30;99.90;;;;;;5060258;28;20083;-87
2021/07/19 01:13:05;;;;;;;3.17;0.68;;;15.70;99.90;;;;;;5060198;28;20036;-87
2021/07/19 01:15:33;;;;;;;1.40;0.45;;;16.10;99.90;;;;;;5059697;28;20489;-88
2021/07/19 01:17:59;;;;;;;3.72;0.90;;;15.30;99.90;;;;;;5058640;28;20474;-88
2021/07/19 01:20:51;;;;;;;4.63;0.60;;;16.90;99.90;;;;;;5020813;28;20031;-88
2021/07/19 01:23:43;;;;;;;3.55;1.00;;;15.70;99.90;;;;;;5025150;28;20036;-87
2021/07/19 01:26:12;;;;;;;3.30;0.55;;;15.60;99.90;;;;;;5078725;28;20047;-87
2021/07/19 01:28:41;;;;;;;3.45;0.75;;;18.60;99.90;;;;;;5061198;28;20033;-88
2021/07/19 01:31:14;;;;;;;2.22;0.88;;;15.10;99.90;;;;;;5059901;28;20028;-87
2021/07/19 01:33:43;;;;;;;2.97;0.60;;;18.20;99.90;;;;;;5059597;28;20031;-88
2021/07/19 01:36:13;;;;;;;1.30;0.43;;;15.70;99.90;;;;;;5059810;28;20024;-87
2021/07/19 01:38:39;;;;;;;3.20;0.55;;;15.30;99.90;;;;;;5060450;28;20013;-88
2021/07/19 01:41:05;;;;;;;4.10;0.80;;;15.40;99.90;;;;;;5086831;28;20092;-87
2021/07/19 01:43:31;;;;;;;2.53;1.05;;;15.20;99.90;;;;;;5081340;28;20028;-87
2021/07/19 01:45:59;;;;;;;3.35;1.23;;;15.30;99.90;;;;;;5080819;28;20040;-88
2021/07/19 01:48:26;;;;;;;2.92;0.65;;;14.60;99.90;;;;;;5080846;28;20025;-88
2021/07/19 01:50:52;;;;;;;1.83;0.68;;;17.10;99.90;;;;;;5078729;28;20025;-87
2021/07/19 01:53:19;;;;;;;3.22;0.93;;;16.10;99.90;;;;;;5077432;28;20079;-88
2021/07/19 01:55:46;;;;;;;2.88;0.50;;;16.20;99.90;;;;;;5059142;28;20025;-87
2021/07/19 01:58:12;;;;;;;2.33;0.70;;;15.00;99.90;;;;;;5059451;28;20119;-88
2021/07/19 02:00:38;;;;;;;1.67;0.52;;;17.50;99.90;;;;;;5059007;28;20020;-88
2021/07/19 02:03:04;;;;;;;5.05;0.60;;;17.70;99.90;;;;;;5057964;28;20107;-88
2021/07/19 02:05:30;;;;;;;2.80;0.30;;;18.00;99.90;;;;;;5058608;28;20052;-88
2021/07/19 02:07:59;;;;;;;1.70;1.00;;;17.90;99.90;;;;;;5058594;28;20576;-88
2021/07/19 02:10:25;;;;;;;4.75;0.82;;;14.90;99.90;;;;;;5076438;28;20024;-88
2021/07/19 02:12:55;;;;;;;4.40;1.27;;;14.90;99.90;;;;;;5058902;28;20020;-87
2021/07/19 02:15:21;;;;;;;3.47;0.57;;;16.70;99.90;;;;;;5058861;28;20040;-88
2021/07/19 02:17:52;;;;;;;3.63;0.68;;;14.70;99.90;;;;;;5059278;28;20033;-87
2021/07/19 02:20:25;;;;;;;5.35;1.02;;;14.70;99.90;;;;;;5076950;28;20021;-88
2021/07/19 02:22:51;;;;;;;6.30;0.90;;;14.00;99.90;;;;;;5073007;28;20011;-88
2021/07/19 02:25:18;;;;;;;3.08;0.70;;;14.70;99.90;;;;;;5078447;28;20036;-88
2021/07/19 02:27:46;;;;;;;2.88;1.17;;;14.60;99.90;;;;;;5068397;28;20031;-89
2021/07/19 02:30:18;;;;;;;1.95;0.65;;;14.30;99.90;;;;;;5071214;28;20040;-89
2021/07/19 02:32:47;;;;;;;2.20;0.40;;;16.30;99.90;;;;;;5069002;28;20025;-89
2021/07/19 02:35:13;;;;;;;;;;;17.40;99.90;;;;;;5069437;28;20060;-89
2021/07/19 02:37:41;;;;;;;3.30;0.30;;;14.50;99.90;;;;;;5067235;28;19912;-89
2021/07/19 02:40:09;;;;;;;4.80;0.40;;;17.40;99.90;;;;;;5067984;28;20020;-89
2021/07/19 02:42:40;;;;;;;2.47;0.52;;;14.50;99.90;;;;;;5067842;28;20512;-88
2021/07/19 02:45:10;;;;;;;2.45;0.45;;;14.40;99.90;;;;;;5066772;28;20111;-88
2021/07/19 02:47:37;;;;;;;4.78;0.43;;;14.40;99.90;;;;;;5085171;28;20431;-88
2021/07/19 02:50:05;;;;;;;1.95;0.50;;;14.40;99.90;;;;;;5065716;28;20020;-88
2021/07/19 02:52:32;;;;;;;;;;;14.30;99.90;;;;;;5063117;28;20025;-88
2021/07/19 02:54:58;;;;;;;4.28;0.47;;;14.20;99.90;;;;;;5062681;28;19943;-88
2021/07/19 02:57:24;;;;;;;1.40;0.60;;;17.00;99.90;;;;;;5065857;28;20028;-89
2021/07/19 02:59:50;;;;;;;4.95;0.90;;;14.00;99.90;;;;;;5063718;28;20527;-89
2021/07/19 03:02:20;;;;;;;2.85;0.40;;;15.90;99.90;;;;;;5063597;28;20031;-89
2021/07/19 03:04:51;;;;;;;1.70;0.43;;;14.00;99.90;;;;;;5063587;28;20058;-88
2021/07/19 03:07:20;;;;;;;4.25;0.93;;;13.90;99.90;;;;;;5063579;28;20028;-89
2021/07/19 03:09:48;;;;;;;;;;;14.00;99.90;;;;;;5064514;28;20032;-89
2021/07/19 03:12:19;;;;;;;2.33;0.60;;;13.90;99.90;;;;;;5064199;28;20396;-89
2021/07/19 03:14:48;;;;;;;3.60;0.65;;;15.60;99.90;;;;;;5062958;28;20090;-89
2021/07/19 03:17:18;;;;;;;9.48;1.25;;;13.80;99.90;;;;;;5079706;28;20017;-89
2021/07/19 03:19:47;;;;;;;3.53;0.45;;;13.90;99.90;;;;;;5080477;28;20055;-89
2021/07/19 03:22:15;;;;;;;3.53;0.60;;;13.70;99.90;;;;;;5062274;28;20485;-89
2021/07/19 03:24:42;;;;;;;2.35;0.75;;;13.90;99.90;;;;;;5061261;28;20086;-89
2021/07/19 03:27:07;;;;;;;5.32;0.95;;;12.80;99.90;;;;;;5061104;28;20025;-89
2021/07/19 03:29:33;;;;;;;3.80;0.95;;;14.00;99.90;;;;;;5078922;28;20032;-89
2021/07/19 03:32:00;;;;;;;1.73;0.70;;;13.90;99.90;;;;;;5061116;28;20390;-89
2021/07/19 03:34:27;;;;;;;2.00;0.70;;;13.80;99.90;;;;;;5060701;28;20088;-89
2021/07/19 03:36:54;;;;;;;2.90;0.70;;;16.80;99.90;;;;;;5078681;28;20024;-89
2021/07/19 03:39:21;;;;;;;2.13;0.40;;;13.70;99.90;;;;;;5061770;28;20017;-89
2021/07/19 03:41:52;;;;;;;3.63;0.73;;;13.80;99.90;;;;;;5060302;28;20024;-89
2021/07/19 03:44:20;;;;;;;3.22;0.60;;;13.90;99.90;;;;;;5083412;28;20066;-88
2021/07/19 03:46:46;;;;;;;1.83;0.68;;;13.10;99.90;;;;;;5083190;28;20017;-89
2021/07/19 03:49:14;;;;;;;3.28;1.25;;;13.90;99.90;;;;;;5083497;28;20008;-89
2021/07/19 03:51:45;;;;;;;3.47;0.77;;;15.10;99.90;;;;;;5083497;28;20036;-89
2021/07/19 03:54:11;;;;;;;2.55;0.73;;;13.70;99.90;;;;;;5065992;28;20033;-90
2021/07/19 03:56:38;;;;;;;1.92;0.80;;;14.90;99.90;;;;;;5077394;28;20033;-90
2021/07/19 03:59:04;;;;;;;2.10;0.50;;;13.90;99.90;;;;;;5077127;28;20040;-90
2021/07/19 04:01:34;;;;;;;4.47;0.82;;;13.60;99.90;;;;;;5059100;28;20334;-90
2021/07/19 04:04:06;;;;;;;2.25;0.82;;;13.70;99.90;;;;;;5059197;28;20405;-90
2021/07/19 04:06:32;;;;;;;2.13;0.70;;;14.90;99.90;;;;;;5059301;28;20457;-90
2021/07/19 04:08:58;;;;;;;1.95;0.38;;;13.90;99.90;;;;;;5058677;28;20021;-90
2021/07/19 04:11:25;;;;;;;1.42;0.65;;;13.60;99.90;;;;;;5058685;28;20067;-90
2021/07/19 04:13:50;;;;;;;1.08;0.55;;;13.90;99.90;;;;;;5076953;28;20028;-90
2021/07/19 04:16:20;;;;;;;3.22;0.52;;;13.90;99.90;;;;;;5058421;28;20469;-90
2021/07/19 04:18:50;;;;;;;3.38;1.00;;;13.60;99.90;;;;;;5059511;28;20111;-90
2021/07/19 04:21:16;;;;;;;4.10;0.77;;;13.70;99.90;;;;;;5058880;28;20028;-89
2021/07/19 04:23:42;;;;;;;3.13;0.57;;;13.80;99.90;;;;;;5058032;28;20036;-90
2021/07/19 04:26:11;;;;;;;2.47;0.40;;;14.00;99.90;;;;;;5058896;28;20048;-90
2021/07/19 04:28:39;;;;;;;5.43;0.70;;;14.80;99.90;;;;;;5058352;28;20107;-89
2021/07/19 04:31:04;;;;;;;3.05;0.65;;;13.90;99.90;;;;;;5076685;28;20036;-90
2021/07/19 04:33:30;;;;;;;1.67;0.60;;;15.00;99.90;;;;;;5058856;28;20031;-89
2021/07/19 04:35:56;;;;;;;3.20;0.75;;;14.10;99.90;;;;;;5057677;28;20033;-89
2021/07/19 04:38:23;;;;;;;3.75;0.50;;;16.20;99.90;;;;;;5058406;28;20028;-89
2021/07/19 04:40:52;;;;;;;4.13;0.90;;;14.20;99.90;;;;;;5058023;28;20024;-89
2021/07/19 04:43:18;;;;;;;2.13;0.68;;;14.30;99.90;;;;;;5057947;28;20577;-89
2021/07/19 04:45:50;;;;;;;2.58;0.88;;;14.00;99.90;;;;;;5060556;28;20051;-90
2021/07/19 04:48:17;;;;;;;5.47;1.00;;;14.50;99.90;;;;;;5061403;28;20020;-90
2021/07/19 04:50:44;;;;;;;3.85;0.60;;;14.40;99.90;;;;;;5061287;28;20025;-89
2021/07/19 04:53:10;;;;;;;2.53;0.75;;;14.50;99.90;;;;;;5059460;28;20104;-89
2021/07/19 04:55:44;;;;;;;2.95;0.70;;;14.60;99.90;;;;;;5057762;28;20012;-90
2021/07/19 04:58:13;;;;;;;6.63;1.35;;;17.00;99.90;;;;;;5057560;28;20028;-89
2021/07/19 05:00:39;;;;;;;3.60;1.00;;;15.20;99.90;;;;;;5057674;28;20070;-89
2021/07/19 05:03:08;;;;;;;4.18;0.90;;;14.10;99.90;;;;;;5058252;28;20017;-89
2021/07/19 05:05:35;;;;;;;;;;;17.50;99.90;;;;;;5057941;28;20044;-89
2021/07/19 05:08:02;;;;;;;3.00;1.00;;;17.00;99.90;;;;;;5057963;28;20002;-89
2021/07/19 05:10:28;;;;;;;3.75;1.13;;;15.00;99.90;;;;;;5057669;28;20025;-89
2021/07/19 05:12:55;;;;;;;4.72;0.93;;;15.00;99.90;;;;;;5058341;28;20035;-89
2021/07/19 05:15:21;;;;;;;2.17;0.73;;;15.20;99.90;;;;;;5057448;28;20027;-89
2021/07/19 05:17:48;;;;;;;3.08;0.63;;;15.50;99.90;;;;;;5078622;28;20028;-89
2021/07/19 05:20:19;;;;;;;3.08;0.75;;;15.70;99.90;;;;;;5078251;28;20020;-89
2021/07/19 05:22:55;;;;;;;1.83;0.65;;;16.20;99.90;;;;;;5060798;28;20016;-88
2021/07/19 05:25:26;;;;;;;3.15;0.80;;;16.30;99.90;;;;;;5079799;28;20032;-88
2021/07/19 05:28:13;;;;;;;3.55;0.88;;;19.20;99.90;;;;;;5061194;28;20035;-88
2021/07/19 05:30:44;;;;;;;2.78;0.68;;;16.60;99.90;;;;;;5061017;28;20029;-88
2021/07/19 05:33:10;;;;;;;5.22;1.48;;;17.00;99.90;;;;;;5060696;28;20478;-88
2021/07/19 05:35:37;;;;;;;2.03;0.70;;;17.10;99.90;;;;;;5078331;28;20028;-88
2021/07/19 05:38:03;;;;;;;1.67;0.45;;;17.30;99.90;;;;;;5061076;28;20103;-87
2021/07/19 05:40:29;;;;;;;3.20;0.60;;;17.40;99.90;;;;;;5060236;28;20023;-87
2021/07/19 05:42:55;;;;;;;3.80;1.00;;;17.50;99.90;;;;;;5078291;28;20504;-88
2021/07/19 05:45:21;;;;;;;3.42;0.90;;;17.80;99.90;;;;;;5059950;28;20024;-87
2021/07/19 05:47:46;;;;;;;4.57;1.75;;;20.20;99.90;;;;;;5060193;28;20062;-87
2021/07/19 05:50:12;;;;;;;4.28;0.90;;;17.70;99.90;;;;;;5060558;28;20043;-87
2021/07/19 05:52:38;;;;;;;4.63;1.27;;;17.70;99.90;;;;;;5059599;28;20123;-87
2021/07/19 05:55:06;;;;;;;7.70;1.00;;;17.70;99.90;;;;;;5059345;28;20052;-87
2021/07/19 05:57:32;;;;;;;2.65;0.88;;;17.70;99.90;;;;;;5060427;28;20026;-87
2021/07/19 06:00:00;;;;;;;2.53;0.70;;;20.40;99.90;;;;;;5063548;28;20051;-87
2021/07/19 06:02:27;;;;;;;1.52;0.90;;;17.60;99.90;;;;;;5069437;28;20028;-87
2021/07/19 06:04:55;;;;;;;3.15;0.90;;;17.70;99.90;;;;;;5057391;28;20093;-87
2021/07/19 06:07:21;;;;;;;2.78;1.25;;;17.80;99.90;;;;;;5076146;28;20040;-87
2021/07/19 06:09:46;;;;;;;6.43;0.98;;;17.70;99.90;;;;;;5060206;28;20123;-85
2021/07/19 06:12:13;;;;;;;5.28;0.80;;;21.00;99.90;;;;;;5078154;28;20086;-86
2021/07/19 06:14:39;;;;;;;3.78;0.60;;;19.50;99.90;;;;;;5060089;28;20373;-86
2021/07/19 06:17:05;;;;;;;7.68;1.08;;;18.10;99.90;;;;;;5077181;28;20025;-86
2021/07/19 06:19:31;;;;;;;2.78;1.15;;;20.10;99.90;;;;;;5059801;28;20474;-86
2021/07/19 06:21:56;;;;;;;5.00;0.90;;;17.70;99.90;;;;;;5059213;28;20465;-86
2021/07/19 06:24:24;;;;;;;2.67;0.70;;;18.40;99.90;;;;;;5058849;28;20399;-86
2021/07/19 06:26:50;;;;;;;3.60;0.87;;;18.60;99.90;;;;;;5058249;28;20020;-86
2021/07/19 06:29:16;;;;;;;2.67;0.75;;;18.80;99.90;;;;;;5058960;28;20298;-86
2021/07/19 06:31:41;;;;;;;4.82;1.33;;;19.10;99.90;;;;;;5058849;28;20382;-87
2021/07/19 06:34:10;;;;;;;4.50;1.15;;;19.00;99.90;;;;;;5059363;28;20033;-86
2021/07/19 06:36:36;;;;;;;5.30;0.70;;;19.00;99.90;;;;;;5058637;28;20025;-86
2021/07/19 06:39:04;;;;;;;10.73;0.50;;;19.10;99.90;;;;;;5059152;28;20093;-86
2021/07/19 06:41:30;;;;;;;0.93;0.50;;;19.00;99.90;;;;;;5059257;28;20086;-86
2021/07/19 06:43:55;;;;;;;2.20;0.70;;;21.50;99.90;;;;;;5075378;28;20032;-86
2021/07/19 06:46:21;;;;;;;2.55;0.40;;;18.80;99.90;;;;;;5063656;28;20021;-86
2021/07/19 06:48:47;;;;;;;4.82;0.60;;;21.10;99.90;;;;;;5052213;28;20063;-86
2021/07/19 06:51:12;;;;;;;4.43;0.77;;;19.00;99.90;;;;;;5076743;28;20023;-86
2021/07/19 06:53:38;;;;;;;2.13;0.50;;;19.80;99.90;;;;;;5058952;28;20039;-86
2021/07/19 06:56:04;;;;;;;4.75;0.40;;;22.00;99.90;;;;;;5058622;28;20024;-86
2021/07/19 06:58:29;;;;;;;3.50;0.65;;;19.30;99.90;;;;;;5076983;28;20016;-86
2021/07/19 07:00:55;;;;;;;2.50;0.52;;;19.20;99.90;;;;;;5058787;28;20009;-86
2021/07/19 07:03:21;;;;;;;2.95;0.63;;;19.10;99.90;;;;;;5076983;28;20458;-86
2021/07/19 07:05:46;;;;;;;2.72;0.80;;;19.70;99.90;;;;;;5058902;28;20432;-86
2021/07/19 07:08:12;;;;;;;1.27;0.40;;;21.40;99.90;;;;;;5059113;28;20021;-86
2021/07/19 07:10:38;;;;;;;2.60;0.55;;;20.90;99.90;;;;;;5076255;28;20020;-87
2021/07/19 07:13:08;;;;;;;3.53;0.50;;;21.30;99.90;;;;;;5076800;28;20051;-87
2021/07/19 07:15:36;;;;;;;3.90;0.52;;;20.50;99.90;;;;;;5059563;28;20115;-87
2021/07/19 07:18:04;;;;;;;5.05;0.57;;;19.90;99.90;;;;;;5063673;28;20024;-86
2021/07/19 07:20:30;;;;;;;2.92;0.38;;;20.10;99.90;;;;;;5064049;28;20021;-86
2021/07/19 07:22:56;;;;;;;3.05;0.73;;;20.30;99.90;;;;;;5062893;28;20031;-85
2021/07/19 07:25:21;;;;;;;1.88;0.50;;;20.40;99.90;;;;;;5061217;28;20393;-88
2021/07/19 07:27:47;;;;;;;4.70;0.40;;;20.30;99.90;;;;;;5080347;28;20024;-88
2021/07/19 07:30:13;;;;;;;0.85;0.50;;;20.10;99.90;;;;;;5081578;28;20024;-88
2021/07/19 07:32:38;;;;;;;2.45;0.50;;;20.10;99.90;;;;;;5049709;28;20033;-88
2021/07/19 07:35:05;;;;;;;4.50;0.68;;;20.00;99.90;;;;;;5063136;28;20035;-89
2021/07/19 07:37:31;;;;;;;4.35;0.60;;;20.30;99.90;;;;;;5080713;28;20048;-88
2021/07/19 07:39:57;;;;;;;3.03;0.43;;;20.40;99.90;;;;;;5080331;28;20027;-89
2021/07/19 07:42:23;;;;;;;2.13;0.32;;;23.10;99.90;;;;;;5047867;28;20394;-88
2021/07/19 07:44:49;;;;;;;3.40;0.85;;;20.60;99.90;;;;;;5041390;28;20017;-88
2021/07/19 07:47:14;;;;;;;2.97;0.43;;;23.50;99.90;;;;;;5059000;28;20028;-88
2021/07/19 07:49:40;;;;;;;5.22;0.52;;;20.60;99.90;;;;;;5032221;28;20040;-88
2021/07/19 07:52:10;;;;;;;3.05;0.57;;;20.80;99.90;;;;;;5032490;28;20029;-87
2021/07/19 07:54:36;;;;;;;3.53;0.40;;;21.60;99.90;;;;;;5031515;28;20021;-88
2021/07/19 07:57:03;;;;;;;3.83;0.20;;;20.90;99.90;;;;;;5058001;28;20504;-88
2021/07/19 07:59:29;;;;;;;2.70;0.63;;;20.90;99.90;;;;;;5053823;28;20028;-87
2021/07/19 08:01:58;;;;;;;2.78;0.80;;;22.80;99.90;;;;;;5082552;28;20036;-87
2021/07/19 08:04:24;;;;;;;2.35;0.88;;;20.90;99.90;;;;;;5082612;28;20076;-87
2021/07/19 08:06:50;;;;;;;3.10;0.65;;;20.70;99.90;;;;;;5065074;28;20083;-87
2021/07/19 08:09:15;;;;;;;4.32;0.77;;;20.70;99.90;;;;;;5077381;28;20052;-88
2021/07/19 08:11:42;;;;;;;2.80;0.50;;;20.60;99.90;;;;;;5080894;28;20024;-88
2021/07/19 08:14:07;;;;;;;1.50;0.30;;;20.80;99.90;;;;;;5062972;28;20020;-87
2021/07/19 08:16:37;;;;;;;2.55;0.32;;;24.10;99.90;;;;;;5079795;28;20040;-87
2021/07/19 08:19:07;;;;;;;2.95;0.40;;;20.90;99.90;;;;;;5062916;28;20020;-88
2021/07/19 08:21:34;;;;;;;2.13;0.20;;;21.10;99.90;;;;;;5062618;28;20086;-88
2021/07/19 08:24:00;;;;;;;3.53;1.30;;;20.70;99.90;;;;;;5062042;28;20374;-88
2021/07/19 08:26:27;;;;;;;3.25;1.08;;;22.90;99.90;;;;;;5079579;28;20071;-88
2021/07/19 08:28:54;;;;;;;2.88;0.60;;;20.00;99.90;;;;;;5056838;28;20028;-88
2021/07/19 08:31:20;;;;;;;4.13;0.47;;;20.40;99.90;;;;;;5079749;28;20024;-86
2021/07/19 08:33:45;;;;;;;4.50;1.05;;;20.50;99.90;;;;;;5060811;28;20079;-87
2021/07/19 08:36:12;;;;;;;2.15;0.63;;;21.20;99.90;;;;;;5061515;28;20060;-87
2021/07/19 08:38:38;;;;;;;3.30;1.00;;;20.60;99.90;;;;;;5061986;28;20013;-87
2021/07/19 08:41:04;;;;;;;4.72;1.02;;;20.80;99.90;;;;;;5051860;28;20013;-86
2021/07/19 08:43:32;;;;;;;2.55;0.57;;;20.60;99.90;;;;;;5076369;28;20103;-87
2021/07/19 08:45:58;;;;;;;3.25;0.90;;;21.60;99.90;;;;;;5049292;28;20028;-87
2021/07/19 08:48:24;;;;;;;6.85;1.77;;;20.70;99.90;;;;;;5055138;28;20024;-88
2021/07/19 08:50:49;;;;;;;3.70;0.68;;;21.60;99.90;;;;;;5079733;28;20027;-87
2021/07/19 08:53:15;;;;;;;2.25;0.70;;;21.10;99.90;;;;;;5060631;28;20021;-87
2021/07/19 08:55:46;;;;;;;3.75;0.57;;;21.20;99.90;;;;;;5077675;28;20432;-86
2021/07/19 08:58:13;;;;;;;3.38;0.90;;;21.40;99.90;;;;;;5046482;28;20662;-88
2021/07/19 09:00:39;;;;;;;3.08;0.57;;;21.50;99.90;;;;;;5060365;28;20470;-88
2021/07/19 09:03:05;;;;;;;3.80;0.98;;;21.60;99.90;;;;;;5059793;28;20086;-88
2021/07/19 09:05:31;;;;;;;3.65;0.60;;;22.40;99.90;;;;;;5077566;28;20020;-87
2021/07/19 09:07:57;;;;;;;6.07;0.98;;;21.60;99.90;;;;;;5059830;28;20033;-88
2021/07/19 09:10:26;;;;;;;3.83;1.10;;;21.70;99.90;;;;;;5078062;28;20059;-87
2021/07/19 09:12:51;;;;;;;4.80;0.93;;;20.80;99.90;;;;;;5059948;28;20024;-85
2021/07/19 09:15:29;;;;;;;3.50;1.15;;;22.00;99.90;;;;;;5060399;28;20516;-85
2021/07/19 09:17:58;;;;;;;4.28;1.35;;;22.20;99.90;;;;;;5078235;28;20108;-87
2021/07/19 09:20:41;;;;;;;3.25;0.98;;;24.30;99.90;;;;;;5059450;28;20025;-86
2021/07/19 09:23:09;;;;;;;3.25;0.98;;;24.60;99.90;;;;;;5059506;28;20519;-86
2021/07/19 09:25:35;;;;;;;4.82;1.20;;;23.70;99.90;;;;;;5060665;28;20025;-86
2021/07/19 09:28:11;;;;;;;4.03;1.42;;;23.80;99.90;;;;;;5060993;28;20420;-86
2021/07/19 09:30:45;;;;;;;3.95;1.00;;;24.00;99.90;;;;;;5060887;28;20504;-86
2021/07/19 09:33:17;;;;;;;6.97;1.40;;;22.30;99.90;;;;;;5061140;28;20084;-86
2021/07/19 09:35:48;;;;;;;2.17;0.85;;;22.50;99.90;;;;;;5082967;28;20078;-86
2021/07/19 09:38:17;;;;;;;3.50;1.38;;;22.80;99.90;;;;;;5075970;28;20043;-87
2021/07/19 09:40:47;;;;;;;3.45;1.23;;;23.00;99.90;;;;;;5050210;28;20020;-87
2021/07/19 09:43:14;;;;;;;5.75;1.15;;;24.40;99.90;;;;;;5060208;28;20021;-87
2021/07/19 09:45:40;;;;;;;8.20;1.38;;;23.30;99.90;;;;;;5059801;28;20031;-86
2021/07/19 09:48:08;;;;;;;3.38;1.40;;;23.40;99.90;;;;;;5076331;28;20048;-86
2021/07/19 09:50:52;;;;;;;3.35;1.17;;;23.60;99.90;;;;;;5078656;28;20033;-86
2021/07/19 09:53:42;;;;;;;3.30;1.45;;;25.10;99.90;;;;;;5061048;28;20036;-86
2021/07/19 09:56:12;;;;;;;3.75;1.65;;;24.60;99.90;;;;;;5061464;28;20056;-86
2021/07/19 09:58:39;;;;;;;2.90;1.08;;;24.10;99.10;;;;;;5078126;28;20082;-87
2021/07/19 10:01:06;;;;;;;4.45;0.90;;;24.90;99.90;;;;;;5077714;28;20127;-86
2021/07/19 10:03:33;;;;;;;3.55;1.00;;;23.90;99.90;;;;;;5080806;28;20048;-87
2021/07/19 10:06:08;;;;;;;4.45;1.00;;;23.70;99.90;;;;;;5058134;28;20456;-86
2021/07/19 10:08:34;;;;;;;4.40;1.05;;;23.60;99.90;;;;;;5059635;28;20405;-87
2021/07/19 10:11:00;;;;;;;4.82;2.20;;;24.40;99.90;;;;;;5060153;28;20085;-87
2021/07/19 10:13:35;;;;;;;4.25;1.08;;;25.20;99.90;;;;;;5078079;28;20025;-87
2021/07/19 10:16:02;;;;;;;4.50;2.05;;;23.80;99.90;;;;;;5060526;28;20378;-86
2021/07/19 10:18:30;;;;;;;3.92;1.30;;;23.90;99.90;;;;;;5059929;28;20427;-86
2021/07/19 10:20:57;;;;;;;8.30;2.38;;;23.80;99.90;;;;;;5059837;28;20101;-86
2021/07/19 10:23:23;;;;;;;7.75;1.63;;;25.20;99.90;;;;;;5077665;28;20028;-86
2021/07/19 10:25:51;;;;;;;6.00;1.95;;;23.50;99.90;;;;;;5059902;28;20025;-87
2021/07/19 10:28:17;;;;;;;3.90;1.35;;;23.00;99.90;;;;;;5045394;28;20081;-87
2021/07/19 10:30:43;;;;;;;3.80;1.48;;;22.90;99.90;;;;;;5040994;28;20052;-87
2021/07/19 10:33:08;;;;;;;6.13;1.63;;;22.70;99.90;;;;;;5059545;28;20086;-86
2021/07/19 10:35:35;;;;;;;3.40;1.23;;;22.50;99.90;;;;;;5058974;28;20112;-86
2021/07/19 10:38:10;;;;;;;6.57;1.77;;;22.50;99.90;;;;;;5059226;28;20119;-86
2021/07/19 10:40:38;;;;;;;6.55;1.50;;;22.60;99.90;;;;;;5059096;28;20540;-86
2021/07/19 10:43:22;;;;;;;4.80;1.60;;;23.00;99.90;;;;;;5061008;28;20074;-86
2021/07/19 10:45:53;;;;;;;3.92;1.13;;;23.70;99.90;;;;;;5059976;28;20541;-86
2021/07/19 10:48:29;;;;;;;7.40;1.75;;;24.10;99.90;;;;;;5060344;28;20108;-86
2021/07/19 10:50:58;;;;;;;7.43;1.42;;;24.10;97.50;;;;;;5047282;28;20029;-86
2021/07/19 10:53:28;;;;;;;4.03;0.88;;;25.30;97.60;;;;;;5084029;28;20017;-86
2021/07/19 10:56:13;;;;;;;4.93;1.45;;;23.30;96.70;;;;;;5081587;28;20114;-86
2021/07/19 10:58:47;;;;;;;6.32;1.55;;;23.30;98.00;;;;;;5081112;28;20512;-86
2021/07/19 11:01:29;;;;;;;4.25;1.45;;;25.30;99.90;;;;;;5063700;28;20090;-86
2021/07/19 11:03:59;;;;;;;4.57;0.90;;;23.10;97.40;;;;;;5085483;28;20092;-86
2021/07/19 11:06:35;;;;;;;2.00;0.75;;;23.20;98.30;;;;;;5081571;28;20036;-87
2021/07/19 11:09:05;;;;;;;4.53;1.67;;;23.50;99.30;;;;;;5079235;28;20025;-85
2021/07/19 11:11:36;;;;;;;1.58;0.90;;;25.50;94.20;;;;;;5062732;28;20114;-86
2021/07/19 11:14:05;;;;;;;3.03;1.10;;;24.10;93.30;;;;;;5061477;28;20029;-86
2021/07/19 11:16:42;;;;;;;3.47;1.25;;;24.10;94.90;;;;;;5062240;28;20029;-86
2021/07/19 11:19:09;;;;;;;3.80;1.27;;;24.30;95.50;;;;;;5080076;28;20078;-86
2021/07/19 11:21:35;;;;;;;3.25;1.45;;;24.50;95.70;;;;;;5063227;28;20024;-86
2021/07/19 11:24:17;;;;;;;3.83;1.08;;;25.90;95.20;;;;;;5063130;28;20534;-85
2021/07/19 11:26:55;;;;;;;3.90;0.93;;;25.20;93.90;;;;;;5048984;28;20024;-85
2021/07/19 11:29:37;;;;;;;3.38;0.98;;;25.10;87.90;;;;;;5079642;28;20078;-85
2021/07/19 11:32:18;;;;;;;2.88;1.05;;;24.90;82.10;;;;;;5061653;28;20032;-85
2021/07/19 11:34:45;;;;;;;3.70;0.75;;;25.00;90.30;;;;;;5083091;28;20100;-86
2021/07/19 11:37:11;;;;;;;5.07;1.43;;;25.00;89.10;;;;;;5053098;28;20029;-87
2021/07/19 11:39:51;;;;;;;2.80;0.63;;;25.20;88.30;;;;;;5063606;28;20631;-86
2021/07/19 11:42:47;;;;;;;3.28;0.95;;;25.50;87.10;;;;;;5063595;28;20024;-86
2021/07/19 11:45:16;;;;;;;3.28;0.98;;;26.00;85.40;;;;;;5046009;28;20035;-85
2021/07/19 11:47:53;;;;;;;1.55;0.60;;;26.60;77.90;;;;;;5063746;28;20024;-85
2021/07/19 11:50:24;;;;;;;2.38;0.68;;;26.60;78.00;;;;;;5064058;28;20371;-86
2021/07/19 11:52:55;;;;;;;3.58;0.82;;;26.70;78.40;;;;;;5064828;28;20020;-86
2021/07/19 11:55:23;;;;;;;2.05;0.80;;;27.90;82.10;;;;;;5078372;28;20486;-86
2021/07/19 11:57:55;;;;;;;3.28;0.93;;;26.70;77.60;;;;;;5057164;28;20048;-86
2021/07/19 12:00:25;;;;;;;2.95;1.17;;;26.90;81.00;;;;;;5074848;28;20034;-86
2021/07/19 12:03:06;;;;;;;2.88;0.60;;;26.50;83.50;;;;;;5077291;28;20390;-85
2021/07/19 12:05:33;;;;;;;1.98;0.68;;;27.00;75.40;;;;;;5079484;28;20035;-85
2021/07/19 12:08:09;;;;;;;2.20;1.00;;;28.20;74.90;;;;;;5059390;28;20017;-86
2021/07/19 12:10:38;;;;;;;2.88;1.27;;;27.20;74.00;;;;;;5055640;28;20365;-85
2021/07/19 12:13:08;;;;;;;2.83;1.17;;;26.80;70.70;;;;;;5058133;28;20020;-85
2021/07/19 12:15:34;;;;;;;4.78;1.05;;;26.50;74.10;;;;;;5060161;28;20024;-86
2021/07/19 12:18:00;;;;;;;3.40;1.02;;;26.30;73.80;;;;;;5058982;28;20033;-85
2021/07/19 12:20:28;;;;;;;3.78;1.17;;;27.90;75.80;;;;;;5061015;28;20025;-85
2021/07/19 12:22:54;;;;;;;;;;;28.80;76.30;;;;;;5060473;28;20021;-85
2021/07/19 12:25:20;;;;;;;4.88;1.92;;;27.60;75.50;;;;;;5078873;28;19912;-87
2021/07/19 12:28:00;;;;;;;3.50;1.00;;;28.90;76.60;;;;;;5060180;28;20047;-85
2021/07/19 12:30:28;;;;;;;4.05;1.10;;;28.40;74.60;;;;;;5059004;28;20028;-85
2021/07/19 12:32:54;;;;;;;3.97;1.45;;;26.90;72.30;;;;;;5059477;28;20020;-85
2021/07/19 12:35:24;;;;;;;3.83;0.88;;;27.20;71.70;;;;;;5059235;28;20047;-85
2021/07/19 12:37:55;;;;;;;5.45;1.52;;;27.30;69.00;;;;;;5058476;28;20557;-86
2021/07/19 12:40:22;;;;;;;3.22;1.13;;;27.30;72.50;;;;;;5058602;28;20024;-85
2021/07/19 12:42:51;;;;;;;4.00;1.05;;;27.40;74.10;;;;;;5076258;28;20024;-85
2021/07/19 12:45:16;;;;;;;5.22;0.90;;;28.90;72.50;;;;;;5058263;28;20028;-85
2021/07/19 12:47:45;;;;;;;2.72;1.42;;;28.20;66.50;;;;;;5077089;28;20113;-85
2021/07/19 12:50:12;;;;;;;3.28;0.85;;;28.30;67.30;;;;;;5059734;28;20111;-86
2021/07/19 12:52:38;;;;;;;5.05;1.30;;;28.50;64.40;;;;;;5060805;28;20020;-86
2021/07/19 12:55:09;;;;;;;3.25;0.80;;;29.00;67.00;;;;;;5061105;28;20028;-86